createdAt,value
2018-09-06T00:01:23.775Z,18.90
2018-09-06T00:03:58.982Z,19.57
2018-09-06T00:06:34.475Z,21.00
2018-09-06T00:09:10.255Z,19.43
2018-09-06T00:11:46.012Z,19.70
2018-09-06T00:14:20.799Z,18.23
2018-09-06T00:16:56.126Z,19.03
2018-09-06T00:19:31.115Z,21.90
2018-09-06T00:22:06.913Z,22.27
2018-09-06T00:24:42.217Z,20.17
2018-09-06T00:27:17.058Z,19.17
2018-09-06T00:29:52.005Z,19.17
2018-09-06T00:32:26.925Z,19.17
2018-09-06T00:35:01.759Z,17.43
2018-09-06T00:37:36.667Z,19.23
2018-09-06T00:40:11.799Z,20.23
2018-09-06T00:42:46.547Z,20.43
2018-09-06T00:45:21.360Z,20.83
2018-09-06T00:47:56.187Z,19.87
2018-09-06T00:50:36.243Z,20.17
2018-09-06T00:53:11.034Z,18.27
2018-09-06T00:55:45.873Z,18.23
2018-09-06T00:58:20.898Z,23.10
2018-09-06T01:00:55.781Z,19.37
2018-09-06T01:03:30.679Z,19.87
2018-09-06T01:06:05.809Z,21.63
2018-09-06T01:08:40.712Z,19.87
2018-09-06T01:11:15.972Z,20.40
2018-09-06T01:13:51.097Z,20.10
2018-09-06T01:16:26.024Z,20.67
2018-09-06T01:19:00.820Z,20.10
2018-09-06T01:21:35.558Z,17.03
2018-09-06T01:24:10.270Z,17.33
2018-09-06T01:26:45.066Z,20.17
2018-09-06T01:29:20.203Z,18.83
2018-09-06T01:31:54.876Z,19.67
2018-09-06T01:34:30.008Z,19.33
2018-09-06T01:37:08.918Z,17.33
2018-09-06T01:39:43.822Z,17.93
2018-09-06T01:42:18.665Z,20.87
2018-09-06T01:44:53.436Z,20.10
2018-09-06T01:47:28.268Z,19.57
2018-09-06T01:50:03.144Z,19.70
2018-09-06T01:52:38.006Z,19.90
2018-09-06T01:55:12.825Z,20.27
2018-09-06T01:57:47.847Z,20.30
2018-09-06T02:00:22.973Z,27.73
2018-09-06T02:02:57.787Z,20.60
2018-09-06T02:05:36.994Z,20.50
2018-09-06T02:08:11.765Z,19.07
2018-09-06T02:10:46.758Z,19.53
2018-09-06T02:13:21.737Z,20.33
2018-09-06T02:15:57.028Z,20.17
2018-09-06T02:18:32.887Z,18.20
2018-09-06T02:21:07.803Z,18.43
2018-09-06T02:23:42.574Z,19.17
2018-09-06T02:26:17.286Z,18.93
2018-09-06T02:28:52.556Z,17.57
2018-09-06T02:31:27.297Z,21.07
2018-09-06T02:34:01.973Z,19.47
2018-09-06T02:36:36.924Z,21.47
2018-09-06T02:39:12.418Z,20.87
2018-09-06T02:41:47.074Z,25.33
2018-09-06T02:44:22.153Z,24.43
2018-09-06T02:46:57.160Z,19.63
2018-09-06T02:49:37.331Z,20.77
2018-09-06T02:52:12.272Z,22.30
2018-09-06T02:54:47.394Z,19.03
2018-09-06T02:57:23.471Z,22.97
2018-09-06T02:59:58.494Z,21.53
2018-09-06T03:02:33.264Z,22.70
2018-09-06T03:05:08.040Z,22.70
2018-09-06T03:07:42.839Z,21.67
2018-09-06T03:10:18.057Z,21.23
2018-09-06T03:12:53.475Z,21.17
2018-09-06T03:15:28.287Z,20.23
2018-09-06T03:18:10.195Z,19.90
2018-09-06T03:20:45.027Z,20.37
2018-09-06T03:23:19.964Z,20.63
2018-09-06T03:25:54.890Z,19.47
2018-09-06T03:28:29.978Z,18.63
2018-09-06T03:31:04.785Z,20.13
2018-09-06T03:33:39.868Z,20.20
2018-09-06T03:36:15.625Z,20.90
2018-09-06T03:38:51.085Z,18.67
2018-09-06T03:41:25.894Z,19.27
2018-09-06T03:44:00.870Z,20.83
2018-09-06T03:46:35.668Z,21.40
2018-09-06T03:49:10.478Z,27.77
2018-09-06T03:51:45.406Z,24.10
2018-09-06T03:54:20.321Z,32.57
2018-09-06T03:56:55.314Z,25.67
2018-09-06T03:59:30.673Z,27.43
2018-09-06T04:02:05.434Z,23.30
2018-09-06T04:04:47.025Z,24.33
2018-09-06T04:07:21.730Z,24.63
2018-09-06T04:10:00.086Z,22.53
2018-09-06T04:12:35.238Z,20.60
2018-09-06T04:15:10.078Z,22.73
2018-09-06T04:17:45.101Z,24.13
2018-09-06T04:20:19.850Z,23.93
2018-09-06T04:22:54.685Z,26.77
2018-09-06T04:25:29.497Z,25.77
2018-09-06T04:28:04.694Z,22.73
2018-09-06T04:30:39.783Z,27.03
2018-09-06T04:33:14.750Z,27.83
2018-09-06T04:35:49.429Z,24.77
2018-09-06T04:38:25.024Z,30.00
2018-09-06T04:41:00.027Z,25.03
2018-09-06T04:43:34.885Z,21.80
2018-09-06T04:46:10.302Z,21.53
2018-09-06T04:48:45.039Z,28.03
2018-09-06T04:51:19.861Z,27.23
2018-09-06T04:53:54.666Z,30.97
2018-09-06T04:56:30.339Z,20.63
2018-09-06T04:59:05.125Z,26.60
2018-09-06T05:01:40.481Z,22.43
2018-09-06T05:04:15.260Z,26.53
2018-09-06T05:06:50.260Z,23.10
2018-09-06T05:09:25.111Z,27.37
2018-09-06T05:11:59.965Z,26.53
2018-09-06T05:14:34.660Z,28.47
2018-09-06T05:17:09.488Z,25.50
2018-09-06T05:19:44.391Z,24.63
2018-09-06T05:22:19.783Z,27.10
2018-09-06T05:24:54.530Z,25.47
2018-09-06T05:27:29.405Z,23.30
2018-09-06T05:30:04.193Z,24.50
2018-09-06T05:32:38.914Z,26.30
2018-09-06T05:35:13.918Z,26.80
2018-09-06T05:37:48.891Z,34.10
2018-09-06T05:40:23.783Z,29.70
2018-09-06T05:42:58.610Z,31.40
2018-09-06T05:45:33.448Z,24.43
2018-09-06T05:48:08.158Z,26.93
2018-09-06T05:50:43.346Z,25.33
2018-09-06T05:53:18.037Z,25.87
2018-09-06T05:55:52.906Z,27.10
2018-09-06T05:58:27.594Z,24.67
2018-09-06T06:01:02.318Z,23.37
2018-09-06T06:03:37.165Z,25.73
2018-09-06T06:06:12.812Z,25.13
2018-09-06T06:08:49.805Z,23.67
2018-09-06T06:11:24.624Z,25.77
2018-09-06T06:13:59.906Z,25.13
2018-09-06T06:16:34.706Z,25.63
2018-09-06T06:19:09.494Z,24.83
2018-09-06T06:21:44.424Z,26.43
2018-09-06T06:24:19.251Z,24.77
2018-09-06T06:26:54.183Z,25.60
2018-09-06T06:29:28.962Z,27.63
2018-09-06T06:32:03.825Z,27.43
2018-09-06T06:34:38.998Z,25.47
2018-09-06T06:37:14.786Z,25.70
2018-09-06T06:39:49.816Z,26.20
2018-09-06T06:42:24.736Z,27.97
2018-09-06T06:44:59.533Z,27.13
2018-09-06T06:47:34.858Z,26.13
2018-09-06T06:50:10.453Z,26.93
2018-09-06T06:52:45.599Z,25.20
2018-09-06T06:55:20.216Z,26.00
2018-09-06T06:57:55.967Z,27.00
2018-09-06T07:00:35.420Z,25.13
2018-09-06T07:03:12.597Z,25.17
2018-09-06T07:05:47.691Z,24.60
2018-09-06T07:08:22.457Z,22.93
2018-09-06T07:10:57.153Z,22.70
2018-09-06T07:13:31.809Z,24.90
2018-09-06T07:16:06.534Z,21.33
2018-09-06T07:18:41.406Z,21.93
2018-09-06T07:21:16.369Z,21.42
2018-09-06T07:23:51.285Z,21.10
2018-09-06T07:26:26.654Z,21.40
2018-09-06T07:29:01.965Z,22.02
2018-09-06T07:31:37.413Z,21.30
2018-09-06T07:34:12.741Z,21.97
2018-09-06T07:36:48.187Z,20.50
2018-09-06T07:39:24.041Z,21.15
2018-09-06T07:41:59.378Z,21.17
2018-09-06T07:44:34.651Z,20.30
2018-09-06T07:47:10.165Z,19.87
2018-09-06T07:49:45.615Z,19.23
2018-09-06T07:52:21.110Z,18.32
2018-09-06T07:54:57.412Z,18.73
2018-09-06T07:57:32.784Z,18.10
2018-09-06T08:00:08.507Z,17.60
2018-09-06T08:02:44.326Z,18.02
2018-09-06T08:05:19.518Z,17.15
2018-09-06T08:07:55.256Z,16.37
2018-09-06T08:10:30.641Z,16.15
2018-09-06T08:13:06.147Z,17.12
2018-09-06T08:15:41.473Z,17.12
2018-09-06T08:18:16.827Z,17.07
2018-09-06T08:20:52.881Z,16.35
2018-09-06T08:23:28.363Z,16.23
2018-09-06T08:26:03.751Z,15.28
2018-09-06T08:28:39.163Z,14.25
2018-09-06T08:31:15.026Z,15.15
2018-09-06T08:33:51.210Z,14.98
2018-09-06T08:36:27.129Z,14.75
2018-09-06T08:39:02.725Z,14.70
2018-09-06T08:41:38.763Z,13.93
2018-09-06T08:44:14.157Z,13.72
2018-09-06T08:46:49.553Z,13.35
2018-09-06T08:49:25.089Z,13.90
2018-09-06T08:52:00.719Z,12.73
2018-09-06T08:54:36.679Z,13.38
2018-09-06T08:57:13.029Z,13.10
2018-09-06T08:59:48.485Z,12.80
2018-09-06T09:02:24.222Z,13.72
2018-09-06T09:05:00.021Z,11.63
2018-09-06T09:07:35.463Z,12.13
2018-09-06T09:10:10.926Z,12.13
2018-09-06T09:12:46.415Z,11.25
2018-09-06T09:15:21.905Z,11.68
2018-09-06T09:17:57.348Z,12.03
2018-09-06T09:20:33.386Z,12.33
2018-09-06T09:23:09.032Z,12.98
2018-09-06T09:25:44.858Z,12.85
2018-09-06T09:28:20.127Z,11.90
2018-09-06T09:30:55.457Z,11.43
2018-09-06T09:33:31.030Z,10.85
2018-09-06T09:36:06.429Z,10.80
2018-09-06T09:38:41.716Z,10.67
2018-09-06T09:41:17.113Z,10.98
2018-09-06T09:43:52.237Z,9.33
2018-09-06T09:49:02.393Z,9.88
2018-09-06T09:51:37.873Z,8.88
2018-09-06T09:54:13.262Z,8.15
2018-09-06T09:56:48.518Z,7.90
2018-09-06T09:59:23.629Z,7.97
2018-09-06T10:02:04.178Z,7.87
2018-09-06T10:04:43.495Z,9.40
2018-09-06T10:07:24.518Z,9.70
2018-09-06T10:09:59.648Z,9.30
2018-09-06T10:12:34.701Z,9.07
2018-09-06T10:15:09.936Z,8.37
2018-09-06T10:17:45.581Z,8.70
2018-09-06T10:20:20.655Z,8.57
2018-09-06T10:22:55.739Z,8.40
2018-09-06T10:25:31.004Z,8.60
2018-09-06T10:28:06.246Z,8.70
2018-09-06T10:30:41.605Z,8.60
2018-09-06T10:33:16.531Z,9.63
2018-09-06T10:35:51.870Z,8.97
2018-09-06T10:38:27.883Z,7.90
2018-09-06T10:41:03.057Z,7.13
2018-09-06T10:43:38.813Z,6.87
2018-09-06T10:46:14.247Z,6.57
2018-09-06T10:48:49.469Z,12.93
2018-09-06T10:51:24.494Z,6.63
2018-09-06T10:53:59.681Z,26.50
2018-09-06T10:56:34.875Z,7.90
2018-09-06T10:59:10.414Z,6.90
2018-09-06T11:01:46.213Z,17.13
2018-09-06T11:04:21.284Z,18.87
2018-09-06T11:06:56.758Z,11.40
2018-09-06T11:09:31.878Z,8.50
2018-09-06T11:12:07.005Z,6.77
2018-09-06T11:14:42.198Z,6.23
2018-09-06T11:17:17.302Z,6.20
2018-09-06T11:19:52.384Z,7.77
2018-09-06T11:22:27.564Z,8.27
2018-09-06T11:25:02.803Z,12.50
2018-09-06T11:27:37.929Z,11.70
2018-09-06T11:30:13.555Z,7.60
2018-09-06T11:32:48.623Z,7.53
2018-09-06T11:35:25.205Z,7.33
2018-09-06T11:38:00.460Z,7.50
2018-09-06T11:40:35.706Z,6.30
2018-09-06T11:43:10.912Z,7.27
2018-09-06T11:45:46.083Z,7.10
2018-09-06T11:48:21.163Z,6.70
2018-09-06T11:50:56.301Z,6.63
2018-09-06T11:53:32.106Z,6.57
2018-09-06T11:56:07.990Z,6.70
2018-09-06T11:58:43.073Z,7.20
2018-09-06T12:01:18.194Z,7.17
2018-09-06T12:03:53.170Z,7.93
2018-09-06T12:06:28.288Z,7.00
2018-09-06T12:09:04.399Z,6.50
2018-09-06T12:11:39.934Z,6.00
2018-09-06T12:14:15.576Z,6.40
2018-09-06T12:16:51.045Z,6.40
2018-09-06T12:19:26.469Z,6.47
2018-09-06T12:22:02.445Z,6.30
2018-09-06T12:24:37.797Z,7.00
2018-09-06T12:27:19.840Z,6.97
2018-09-06T12:29:55.257Z,6.33
2018-09-06T12:32:30.870Z,5.50
2018-09-06T12:35:06.857Z,5.60
2018-09-06T12:37:42.344Z,5.45
2018-09-06T12:40:17.941Z,8.83
2018-09-06T12:42:53.370Z,8.45
2018-09-06T12:45:29.034Z,5.62
2018-09-06T12:48:04.975Z,6.10
2018-09-06T12:50:40.677Z,5.47
2018-09-06T12:53:16.271Z,6.10
2018-09-06T12:55:52.078Z,6.30
2018-09-06T12:58:27.361Z,5.77
2018-09-06T13:01:02.389Z,5.80
2018-09-06T13:03:37.435Z,5.80
2018-09-06T13:06:12.581Z,5.60
2018-09-06T13:08:47.713Z,5.60
2018-09-06T13:11:22.942Z,5.87
2018-09-06T13:13:58.268Z,5.33
2018-09-06T13:16:33.373Z,5.63
2018-09-06T13:19:08.566Z,6.13
2018-09-06T13:21:43.815Z,5.33
2018-09-06T13:24:18.924Z,5.70
2018-09-06T13:26:54.029Z,5.53
2018-09-06T13:29:28.977Z,5.83
2018-09-06T13:32:04.111Z,5.87
2018-09-06T13:34:39.303Z,5.13
2018-09-06T13:37:14.485Z,5.50
2018-09-06T13:39:49.613Z,5.43
2018-09-06T13:42:25.513Z,5.00
2018-09-06T13:45:00.552Z,5.07
2018-09-06T13:47:35.785Z,5.30
2018-09-06T13:50:10.998Z,5.33
2018-09-06T13:52:46.059Z,5.17
2018-09-06T13:55:22.478Z,5.00
2018-09-06T13:57:57.561Z,5.20
2018-09-06T14:00:32.609Z,5.67
2018-09-06T14:03:08.133Z,5.30
2018-09-06T14:05:44.150Z,5.50
2018-09-06T14:08:19.642Z,5.90
2018-09-06T14:10:55.247Z,5.62
2018-09-06T14:13:30.632Z,5.35
2018-09-06T14:16:06.205Z,5.42
2018-09-06T14:18:41.462Z,5.33
2018-09-06T14:21:16.759Z,5.37
2018-09-06T14:23:51.881Z,5.13
2018-09-06T14:26:27.059Z,5.47
2018-09-06T14:29:02.072Z,5.50
2018-09-06T14:31:37.239Z,5.57
2018-09-06T14:34:13.368Z,4.75
2018-09-06T14:36:49.004Z,4.60
2018-09-06T14:39:24.319Z,4.80
2018-09-06T14:41:59.658Z,5.20
2018-09-06T14:44:35.254Z,5.30
2018-09-06T14:47:10.833Z,4.70
2018-09-06T14:49:46.598Z,5.20
2018-09-06T14:52:22.302Z,5.22
2018-09-06T14:54:57.659Z,4.80
2018-09-06T14:57:33.137Z,5.22
2018-09-06T15:00:09.398Z,5.03
2018-09-06T15:02:44.835Z,5.15
2018-09-06T15:05:20.495Z,5.22
2018-09-06T15:07:56.017Z,4.90
2018-09-06T15:10:31.675Z,5.58
2018-09-06T15:13:07.697Z,5.20
2018-09-06T15:15:43.129Z,4.90
2018-09-06T15:18:18.576Z,4.85
2018-09-06T15:20:54.052Z,4.83
2018-09-06T15:23:29.350Z,5.30
2018-09-06T15:26:05.183Z,4.65
2018-09-06T15:28:40.762Z,4.83
2018-09-06T15:31:16.134Z,5.62
2018-09-06T15:33:52.091Z,5.45
2018-09-06T15:36:27.421Z,5.53
2018-09-06T15:39:04.173Z,5.58
2018-09-06T15:41:43.247Z,5.20
2018-09-06T15:44:18.635Z,5.25
2018-09-06T15:46:54.062Z,5.25
2018-09-06T15:49:29.723Z,5.72
2018-09-06T15:52:05.283Z,5.30
2018-09-06T15:54:40.923Z,5.25
2018-09-06T15:57:16.409Z,5.42
2018-09-06T15:59:51.820Z,5.80
2018-09-06T16:02:27.149Z,5.55
2018-09-06T16:05:03.083Z,5.40
2018-09-06T16:07:38.555Z,5.33
2018-09-06T16:10:14.158Z,5.75
2018-09-06T16:12:49.723Z,5.25
2018-09-06T16:15:25.168Z,5.08
2018-09-06T16:18:00.630Z,5.62
2018-09-06T16:20:36.026Z,6.85
2018-09-06T16:23:11.329Z,4.87
2018-09-06T16:25:46.782Z,5.20
2018-09-06T16:28:22.063Z,5.35
2018-09-06T16:30:57.505Z,5.47
2018-09-06T16:33:32.739Z,7.00
2018-09-06T16:36:08.272Z,6.72
2018-09-06T16:38:44.034Z,6.22
2018-09-06T16:41:19.378Z,7.15
2018-09-06T16:43:54.720Z,7.15
2018-09-06T16:46:30.088Z,7.00
2018-09-06T16:49:06.209Z,7.15
2018-09-06T16:51:42.010Z,8.90
2018-09-06T16:54:17.497Z,7.15
2018-09-06T16:56:53.121Z,7.10
2018-09-06T16:59:29.503Z,7.62
2018-09-06T17:02:05.060Z,7.00
2018-09-06T17:04:40.364Z,7.00
2018-09-06T17:07:16.374Z,7.15
2018-09-06T17:09:51.767Z,7.35
2018-09-06T17:12:27.154Z,7.17
2018-09-06T17:15:03.541Z,7.97
2018-09-06T17:17:39.269Z,7.20
2018-09-06T17:20:14.821Z,6.80
2018-09-06T17:22:50.664Z,6.47
2018-09-06T17:25:26.700Z,6.40
2018-09-06T17:28:02.703Z,6.10
2018-09-06T17:30:38.706Z,6.42
2018-09-06T17:33:14.371Z,5.70
2018-09-06T17:35:50.253Z,5.25
2018-09-06T17:38:26.006Z,4.97
2018-09-06T17:41:01.620Z,5.17
2018-09-06T17:43:37.124Z,5.35
2018-09-06T17:46:12.831Z,5.35
2018-09-06T17:48:48.188Z,6.03
2018-09-06T17:51:23.657Z,8.13
2018-09-06T17:53:59.390Z,5.95
2018-09-06T17:56:35.440Z,6.05
2018-09-06T17:59:11.058Z,6.28
2018-09-06T18:01:47.043Z,6.80
2018-09-06T18:04:22.735Z,7.03
2018-09-06T18:06:58.070Z,6.37
2018-09-06T18:09:33.666Z,7.40
2018-09-06T18:12:09.531Z,9.28
2018-09-06T18:14:44.964Z,8.28
2018-09-06T18:17:20.293Z,10.15
2018-09-06T18:19:55.958Z,8.25
2018-09-06T18:22:31.990Z,10.20
2018-09-06T18:25:07.570Z,11.80
2018-09-06T18:27:43.799Z,10.13
2018-09-06T18:30:20.190Z,9.13
2018-09-06T18:32:55.607Z,11.05
2018-09-06T18:35:31.123Z,9.53
2018-09-06T18:38:06.386Z,11.18
2018-09-06T18:40:42.054Z,8.83
2018-09-06T18:43:17.427Z,9.13
2018-09-06T18:45:52.864Z,9.43
2018-09-06T18:48:28.211Z,10.28
2018-09-06T18:51:03.661Z,9.93
2018-09-06T18:53:45.712Z,11.40
2018-09-06T18:56:21.145Z,9.75
2018-09-06T18:58:57.279Z,10.68
2018-09-06T19:01:33.341Z,9.80
2018-09-06T19:04:08.808Z,14.03
2018-09-06T19:06:44.136Z,10.43
2018-09-06T19:09:19.645Z,11.00
2018-09-06T19:11:55.493Z,10.38
2018-09-06T19:14:31.041Z,10.60
2018-09-06T19:17:06.520Z,10.72
2018-09-06T19:19:41.763Z,9.78
2018-09-06T19:22:17.241Z,10.18
2018-09-06T19:24:52.637Z,9.35
2018-09-06T19:27:28.274Z,10.43
2018-09-06T19:30:04.017Z,10.25
2018-09-06T19:32:39.544Z,11.33
2018-09-06T19:35:15.000Z,9.65
2018-09-06T19:37:50.483Z,10.58
2018-09-06T19:40:25.827Z,10.10
2018-09-06T19:43:01.233Z,10.82
2018-09-06T19:45:37.007Z,10.95
2018-09-06T19:48:12.456Z,11.60
2018-09-06T19:50:47.960Z,11.18
2018-09-06T19:53:23.500Z,11.25
2018-09-06T19:55:58.903Z,11.30
2018-09-06T19:58:34.476Z,11.30
2018-09-06T20:01:09.832Z,11.12
2018-09-06T20:03:45.360Z,10.85
2018-09-06T20:06:20.716Z,13.38
2018-09-06T20:08:56.291Z,11.45
2018-09-06T20:11:31.796Z,11.83
2018-09-06T20:14:07.557Z,11.05
2018-09-06T20:16:42.843Z,11.83
2018-09-06T20:19:18.538Z,11.35
2018-09-06T20:21:53.973Z,11.15
2018-09-06T20:24:29.444Z,11.83
2018-09-06T20:27:04.914Z,12.75
2018-09-06T20:29:41.973Z,11.48
2018-09-06T20:32:17.558Z,11.68
2018-09-06T20:34:53.110Z,11.80
2018-09-06T20:37:28.342Z,12.63
2018-09-06T20:40:04.249Z,11.30
2018-09-06T20:42:39.496Z,12.15
2018-09-06T20:45:14.864Z,11.50
2018-09-06T20:47:50.131Z,12.37
2018-09-06T20:50:25.673Z,11.95
2018-09-06T20:53:01.044Z,11.03
2018-09-06T20:55:36.535Z,12.20
2018-09-06T20:58:11.973Z,11.63
2018-09-06T21:00:48.111Z,11.80
2018-09-06T21:03:23.635Z,12.73
2018-09-06T21:05:59.200Z,13.08
2018-09-06T21:08:34.915Z,13.35
2018-09-06T21:11:10.703Z,12.78
2018-09-06T21:13:47.054Z,12.80
2018-09-06T21:16:22.619Z,13.83
2018-09-06T21:18:58.181Z,13.90
2018-09-06T21:21:33.686Z,11.45
2018-09-06T21:24:09.103Z,11.97
2018-09-06T21:26:43.890Z,12.40
2018-09-06T21:29:18.821Z,14.27
2018-09-06T21:31:54.323Z,11.40
2018-09-06T21:34:29.523Z,12.85
2018-09-06T21:37:04.918Z,12.10
2018-09-06T21:39:39.796Z,11.87
2018-09-06T21:42:14.592Z,11.10
2018-09-06T21:44:49.615Z,12.20
2018-09-06T21:47:24.663Z,11.80
2018-09-06T21:50:01.044Z,12.88
2018-09-06T21:52:35.881Z,15.23
2018-09-06T21:55:10.861Z,12.10
2018-09-06T21:57:45.678Z,12.37
2018-09-06T22:00:20.557Z,12.45
2018-09-06T22:03:01.264Z,12.13
2018-09-06T22:05:36.577Z,10.95
2018-09-06T22:08:11.482Z,11.97
2018-09-06T22:10:46.989Z,12.60
2018-09-06T22:13:22.322Z,11.33
2018-09-06T22:15:57.810Z,12.55
2018-09-06T22:18:32.849Z,11.73
2018-09-06T22:21:07.587Z,11.70
2018-09-06T22:23:42.889Z,11.55
2018-09-06T22:26:18.263Z,11.38
2018-09-06T22:28:52.964Z,11.67
2018-09-06T22:31:27.854Z,12.17
2018-09-06T22:34:02.765Z,11.63
2018-09-06T22:36:37.680Z,13.17
2018-09-06T22:39:13.111Z,12.63
2018-09-06T22:41:48.157Z,13.00
2018-09-06T22:44:23.012Z,13.97
2018-09-06T22:46:58.163Z,13.00
2018-09-06T22:49:32.863Z,13.57
2018-09-06T22:52:07.851Z,12.63
2018-09-06T22:54:42.675Z,13.33
2018-09-06T22:57:17.699Z,13.30
2018-09-06T22:59:52.638Z,14.50
2018-09-06T23:02:32.794Z,13.20
2018-09-06T23:05:07.728Z,13.37
2018-09-06T23:07:42.498Z,12.13
2018-09-06T23:10:17.490Z,13.30
2018-09-06T23:12:52.778Z,14.00
2018-09-06T23:15:28.054Z,13.47
2018-09-06T23:18:02.977Z,15.43
2018-09-06T23:20:37.747Z,14.53
2018-09-06T23:23:12.941Z,14.03
2018-09-06T23:25:47.694Z,13.97
2018-09-06T23:28:22.479Z,13.20
2018-09-06T23:30:57.426Z,12.63
2018-09-06T23:33:32.258Z,14.03
2018-09-06T23:36:07.089Z,13.60
2018-09-06T23:38:41.832Z,13.97
2018-09-06T23:41:16.758Z,14.00
2018-09-06T23:43:51.533Z,14.43
2018-09-06T23:46:26.301Z,12.87
2018-09-06T23:49:01.230Z,13.70
2018-09-06T23:51:36.076Z,13.03
2018-09-06T23:54:11.043Z,14.17
2018-09-06T23:56:45.809Z,13.47
2018-09-06T23:59:20.568Z,12.23
